createdAt,value
2022-08-17T00:01:51.796Z,41.20
2022-08-17T00:04:21.663Z,41.20
2022-08-17T00:06:49.697Z,41.40
2022-08-17T00:09:18.425Z,41.30
2022-08-17T00:12:41.578Z,41.40
2022-08-17T00:14:36.369Z,41.40
2022-08-17T00:17:04.777Z,41.50
2022-08-17T00:19:33.156Z,41.50
2022-08-17T00:22:34.842Z,41.60
2022-08-17T00:24:50.845Z,41.50
2022-08-17T00:27:18.507Z,41.40
2022-08-17T00:29:46.079Z,41.40
2022-08-17T00:33:13.839Z,41.40
2022-08-17T00:35:08.633Z,41.60
2022-08-17T00:37:36.143Z,41.60
2022-08-17T00:40:05.569Z,41.60
2022-08-17T00:42:35.279Z,41.70
2022-08-17T00:45:05.326Z,41.60
2022-08-17T00:47:32.701Z,41.70
2022-08-17T00:49:59.717Z,41.80
2022-08-17T00:52:35.659Z,41.80
2022-08-17T00:55:06.187Z,41.90
2022-08-17T00:57:39.242Z,42.00
2022-08-17T01:00:12.371Z,42.10
2022-08-17T01:02:44.163Z,42.80
2022-08-17T01:05:18.925Z,42.20
2022-08-17T01:07:50.892Z,42.30
2022-08-17T01:11:00.534Z,42.30
2022-08-17T01:13:11.353Z,42.40
2022-08-17T01:15:46.385Z,42.40
2022-08-17T01:18:14.899Z,42.40
2022-08-17T01:20:51.196Z,42.30
2022-08-17T01:23:21.365Z,42.50
2022-08-17T01:25:52.575Z,42.50
2022-08-17T01:28:52.372Z,42.50
2022-08-17T01:31:12.237Z,42.50
2022-08-17T01:33:39.594Z,42.60
2022-08-17T01:36:07.640Z,42.60
2022-08-17T01:38:36.109Z,42.70
2022-08-17T01:41:12.781Z,42.80
2022-08-17T01:43:57.182Z,42.80
2022-08-17T01:46:32.881Z,42.80
2022-08-17T01:49:01.334Z,42.90
2022-08-17T01:51:32.869Z,42.90
2022-08-17T01:54:12.012Z,43.00
2022-08-17T01:56:44.208Z,43.00
2022-08-17T01:59:15.614Z,43.10
2022-08-17T02:01:43.857Z,43.20
2022-08-17T02:04:13.026Z,43.10
2022-08-17T02:06:53.661Z,43.20
2022-08-17T02:09:27.157Z,43.20
2022-08-17T02:12:38.103Z,43.30
2022-08-17T02:14:47.670Z,43.40
2022-08-17T02:17:14.680Z,43.40
2022-08-17T02:19:41.960Z,43.50
2022-08-17T02:22:10.198Z,43.60
2022-08-17T02:25:01.018Z,43.60
2022-08-17T02:27:28.853Z,43.60
2022-08-17T02:29:56.319Z,43.80
2022-08-17T02:32:28.243Z,43.80
2022-08-17T02:34:58.392Z,43.80
2022-08-17T02:37:27.452Z,43.80
2022-08-17T02:39:57.224Z,43.90
2022-08-17T02:42:38.483Z,44.00
2022-08-17T02:45:11.126Z,44.00
2022-08-17T02:47:38.905Z,43.90
2022-08-17T02:50:07.478Z,44.10
2022-08-17T02:52:42.294Z,44.20
2022-08-17T02:55:20.917Z,44.10
2022-08-17T02:57:49.751Z,44.20
2022-08-17T03:00:21.834Z,44.20
2022-08-17T03:02:49.826Z,44.20
2022-08-17T03:05:21.289Z,44.20
2022-08-17T03:07:48.933Z,44.40
2022-08-17T03:10:17.084Z,44.50
2022-08-17T03:12:46.010Z,44.50
2022-08-17T03:15:23.508Z,44.50
2022-08-17T03:17:53.951Z,44.60
2022-08-17T03:20:21.712Z,44.70
2022-08-17T03:22:53.197Z,44.60
2022-08-17T03:25:25.065Z,44.60
2022-08-17T03:27:52.105Z,44.70
2022-08-17T03:30:19.165Z,44.70
2022-08-17T03:32:52.966Z,44.70
2022-08-17T03:35:23.905Z,44.70
2022-08-17T03:38:00.434Z,44.80
2022-08-17T03:40:34.565Z,44.90
2022-08-17T03:43:22.397Z,45.10
2022-08-17T03:46:23.989Z,45.30
2022-08-17T03:49:14.953Z,45.40
2022-08-17T03:52:01.679Z,45.50
2022-08-17T03:54:49.482Z,45.60
2022-08-17T03:57:18.587Z,45.60
2022-08-17T03:59:45.779Z,45.60
2022-08-17T04:02:19.408Z,45.60
2022-08-17T04:04:46.977Z,45.70
2022-08-17T04:07:13.986Z,45.80
2022-08-17T04:09:40.999Z,46.00
2022-08-17T04:12:08.139Z,46.00
2022-08-17T04:14:51.637Z,46.20
2022-08-17T04:17:21.659Z,46.30
2022-08-17T04:19:50.214Z,46.20
2022-08-17T04:22:33.408Z,46.20
2022-08-17T04:25:07.083Z,46.30
2022-08-17T04:27:34.267Z,46.30
2022-08-17T04:30:02.056Z,46.30
2022-08-17T04:33:03.837Z,46.50
2022-08-17T04:35:24.821Z,46.50
2022-08-17T04:37:53.172Z,46.60
2022-08-17T04:40:41.040Z,46.60
2022-08-17T04:43:11.948Z,46.60
2022-08-17T04:45:55.204Z,46.60
2022-08-17T04:48:29.770Z,46.60
2022-08-17T04:51:10.386Z,46.60
2022-08-17T04:53:43.050Z,46.60
2022-08-17T04:56:16.968Z,46.60
2022-08-17T04:58:50.687Z,46.60
2022-08-17T05:01:23.326Z,46.60
2022-08-17T05:03:57.207Z,46.70
2022-08-17T05:06:25.277Z,46.70
2022-08-17T05:08:52.768Z,46.80
2022-08-17T05:11:21.053Z,46.80
2022-08-17T05:13:50.368Z,46.60
2022-08-17T05:16:18.890Z,46.70
2022-08-17T05:18:46.043Z,46.70
2022-08-17T05:21:14.757Z,47.40
2022-08-17T05:23:43.518Z,46.80
2022-08-17T05:26:17.941Z,46.70
2022-08-17T05:28:57.221Z,46.90
2022-08-17T05:31:28.348Z,46.90
2022-08-17T05:33:56.698Z,46.90
2022-08-17T05:36:43.174Z,46.80
2022-08-17T05:39:15.825Z,46.80
2022-08-17T05:41:44.616Z,46.90
2022-08-17T05:44:11.624Z,46.80
2022-08-17T05:46:43.575Z,46.70
2022-08-17T05:49:12.286Z,46.60
2022-08-17T05:51:46.693Z,46.20
2022-08-17T05:54:39.623Z,46.30
2022-08-17T05:57:12.700Z,45.90
2022-08-17T06:00:01.216Z,45.70
2022-08-17T06:02:44.180Z,45.60
2022-08-17T06:05:51.216Z,45.40
2022-08-17T06:08:53.278Z,45.20
2022-08-17T06:11:44.539Z,45.30
2022-08-17T06:14:34.880Z,44.90
2022-08-17T06:17:11.910Z,44.40
2022-08-17T06:19:57.992Z,44.40
2022-08-17T06:22:33.046Z,43.80
2022-08-17T06:25:10.051Z,44.00
2022-08-17T06:27:40.229Z,43.80
2022-08-17T06:30:19.541Z,43.10
2022-08-17T06:32:50.581Z,42.80
2022-08-17T06:35:40.775Z,42.90
2022-08-17T06:38:38.396Z,42.80
2022-08-17T06:41:24.928Z,43.00
2022-08-17T06:44:42.258Z,43.00
2022-08-17T06:47:13.615Z,42.50
2022-08-17T06:49:55.206Z,42.80
2022-08-17T06:52:46.963Z,42.50
2022-08-17T06:55:21.421Z,41.90
2022-08-17T06:57:55.319Z,41.90
2022-08-17T07:00:26.626Z,42.00
2022-08-17T07:02:59.669Z,41.70
2022-08-17T07:06:13.608Z,41.10
2022-08-17T07:09:08.855Z,40.00
2022-08-17T07:11:50.402Z,39.60
2022-08-17T07:14:36.910Z,39.20
2022-08-17T07:17:14.596Z,38.10
2022-08-17T07:19:46.417Z,36.30
2022-08-17T07:22:30.555Z,36.80
2022-08-17T07:25:20.944Z,36.00
2022-08-17T07:27:52.821Z,35.30
2022-08-17T07:30:44.591Z,34.30
2022-08-17T07:33:23.805Z,33.40
2022-08-17T07:35:51.329Z,33.60
2022-08-17T07:38:34.422Z,33.40
2022-08-17T07:41:06.760Z,33.10
2022-08-17T07:43:40.009Z,32.70
2022-08-17T07:46:36.150Z,32.10
2022-08-17T07:49:03.701Z,31.60
2022-08-17T07:51:32.179Z,31.50
2022-08-17T07:54:23.440Z,31.00
2022-08-17T07:57:00.926Z,30.40
2022-08-17T07:59:34.550Z,30.10
2022-08-17T08:02:17.141Z,29.80
2022-08-17T08:05:01.100Z,29.80
2022-08-17T08:07:35.999Z,29.60
2022-08-17T08:10:04.087Z,29.60
2022-08-17T08:12:36.397Z,29.00
2022-08-17T08:15:09.480Z,28.50
2022-08-17T08:17:50.183Z,28.40
2022-08-17T08:20:42.480Z,27.80
2022-08-17T08:23:05.378Z,28.20
2022-08-17T08:25:43.045Z,28.10
2022-08-17T08:28:37.352Z,28.00
2022-08-17T08:31:13.979Z,27.50
2022-08-17T08:34:03.767Z,27.30
2022-08-17T08:37:12.583Z,26.60
2022-08-17T08:39:48.987Z,26.70
2022-08-17T08:42:42.112Z,26.50
2022-08-17T08:45:30.543Z,25.90
2022-08-17T08:48:58.055Z,25.30
2022-08-17T08:51:18.615Z,25.90
2022-08-17T08:54:07.980Z,25.10
2022-08-17T08:57:05.006Z,25.30
2022-08-17T08:59:59.713Z,25.10
2022-08-17T09:02:34.715Z,24.70
2022-08-17T09:05:20.835Z,24.60
2022-08-17T09:08:05.036Z,24.00
2022-08-17T09:10:45.111Z,23.70
2022-08-17T09:13:22.167Z,23.80
2022-08-17T09:16:05.239Z,23.60
2022-08-17T09:19:00.417Z,24.00
2022-08-17T09:22:00.358Z,24.00
2022-08-17T09:24:45.304Z,23.70
2022-08-17T09:27:22.192Z,23.40
2022-08-17T09:29:53.840Z,23.60
2022-08-17T09:32:52.230Z,23.60
2022-08-17T09:35:25.231Z,23.10
2022-08-17T09:38:22.717Z,23.60
2022-08-17T09:41:15.304Z,23.10
2022-08-17T09:44:23.549Z,22.60
2022-08-17T09:47:07.958Z,22.70
2022-08-17T09:49:53.823Z,22.70
2022-08-17T09:52:24.727Z,22.20
2022-08-17T09:54:55.725Z,22.30
2022-08-17T09:57:30.440Z,22.10
2022-08-17T10:00:20.208Z,22.00
2022-08-17T10:03:09.790Z,21.00
2022-08-17T10:05:57.026Z,21.70
2022-08-17T10:08:47.979Z,21.50
2022-08-17T10:11:58.499Z,21.40
2022-08-17T10:14:36.555Z,21.00
2022-08-17T10:17:28.331Z,21.40
2022-08-17T10:20:20.549Z,21.60
2022-08-17T10:23:31.685Z,21.90
2022-08-17T10:26:13.489Z,21.90
2022-08-17T10:28:47.238Z,22.10
2022-08-17T10:31:39.678Z,22.10
2022-08-17T10:34:52.417Z,21.80
2022-08-17T10:37:26.366Z,21.50
2022-08-17T10:40:19.847Z,21.60
2022-08-17T10:42:59.097Z,21.60
2022-08-17T10:45:36.663Z,21.40
2022-08-17T10:48:07.321Z,21.20
2022-08-17T10:50:58.102Z,21.00
2022-08-17T10:53:43.751Z,20.80
2022-08-17T10:56:14.057Z,20.70
2022-08-17T10:58:59.493Z,21.10
2022-08-17T11:01:32.470Z,21.20
2022-08-17T11:04:23.183Z,21.30
2022-08-17T11:07:33.023Z,21.20
2022-08-17T11:10:21.099Z,21.50
2022-08-17T11:13:10.300Z,21.60
2022-08-17T11:15:45.776Z,21.90
2022-08-17T11:18:50.971Z,22.10
2022-08-17T11:21:56.547Z,22.10
2022-08-17T11:24:49.357Z,22.20
2022-08-17T11:27:27.347Z,22.30
2022-08-17T11:30:12.497Z,23.10
2022-08-17T11:32:55.368Z,22.10
2022-08-17T11:35:22.748Z,22.10
2022-08-17T11:37:56.061Z,22.30
2022-08-17T11:40:43.214Z,22.10
2022-08-17T11:43:48.409Z,22.20
2022-08-17T11:47:09.607Z,21.90
2022-08-17T11:50:31.134Z,22.00
2022-08-17T11:52:58.337Z,21.90
2022-08-17T11:55:38.414Z,22.00
2022-08-17T11:58:46.330Z,21.80
2022-08-17T12:01:56.846Z,21.70
2022-08-17T12:04:34.921Z,22.00
2022-08-17T12:07:18.382Z,21.90
2022-08-17T12:09:52.418Z,21.80
2022-08-17T12:12:35.622Z,21.70
2022-08-17T12:15:12.031Z,21.70
2022-08-17T12:17:42.998Z,21.50
2022-08-17T12:20:19.522Z,21.40
2022-08-17T12:23:04.159Z,21.70
2022-08-17T12:25:41.220Z,21.60
2022-08-17T12:28:46.146Z,21.50
2022-08-17T12:31:21.865Z,21.60
2022-08-17T12:33:50.135Z,21.70
2022-08-17T12:36:23.256Z,21.90
2022-08-17T12:39:14.458Z,22.00
2022-08-17T12:41:52.393Z,21.80
2022-08-17T12:44:26.068Z,22.00
2022-08-17T12:46:59.758Z,22.30
2022-08-17T12:49:31.055Z,22.20
2022-08-17T12:52:26.256Z,22.10
2022-08-17T12:55:01.921Z,22.00
2022-08-17T12:57:41.116Z,21.90
2022-08-17T13:00:30.612Z,22.10
2022-08-17T13:03:19.305Z,21.80
2022-08-17T13:05:52.578Z,21.50
2022-08-17T13:08:33.962Z,21.30
2022-08-17T13:11:06.578Z,21.50
2022-08-17T13:13:41.497Z,21.50
2022-08-17T13:16:19.258Z,21.50
2022-08-17T13:18:53.715Z,21.60
2022-08-17T13:21:22.431Z,22.20
2022-08-17T13:24:15.888Z,21.60
2022-08-17T13:27:08.577Z,21.70
2022-08-17T13:29:44.735Z,21.80
2022-08-17T13:32:13.492Z,21.80
2022-08-17T13:35:12.362Z,21.90
2022-08-17T13:37:40.663Z,22.10
2022-08-17T13:40:13.141Z,22.10
2022-08-17T13:42:50.198Z,22.20
2022-08-17T13:45:36.203Z,22.30
2022-08-17T13:48:11.892Z,22.40
2022-08-17T13:50:56.236Z,22.40
2022-08-17T13:53:33.094Z,22.50
2022-08-17T13:56:03.521Z,22.60
2022-08-17T13:58:41.211Z,22.70
2022-08-17T14:01:28.305Z,22.60
2022-08-17T14:03:56.128Z,22.70
2022-08-17T14:06:52.154Z,22.80
2022-08-17T14:09:16.537Z,22.90
2022-08-17T14:11:45.893Z,22.90
2022-08-17T14:14:14.718Z,22.90
2022-08-17T14:16:42.464Z,23.00
2022-08-17T14:19:14.338Z,23.00
2022-08-17T14:21:44.335Z,22.90
2022-08-17T14:24:27.956Z,22.80
2022-08-17T14:26:56.274Z,22.90
2022-08-17T14:29:25.785Z,23.10
2022-08-17T14:31:54.778Z,22.80
2022-08-17T14:34:23.351Z,22.90
2022-08-17T14:36:50.555Z,22.90
2022-08-17T14:39:18.668Z,22.90
2022-08-17T14:41:45.867Z,23.00
2022-08-17T14:44:13.241Z,23.00
2022-08-17T14:46:43.516Z,23.00
2022-08-17T14:49:12.900Z,23.00
2022-08-17T14:51:43.966Z,23.00
2022-08-17T14:54:33.448Z,22.90
2022-08-17T14:57:24.667Z,23.00
2022-08-17T14:59:55.161Z,23.10
2022-08-17T15:02:29.901Z,23.10
2022-08-17T15:05:05.885Z,23.10
2022-08-17T15:07:32.825Z,23.20
2022-08-17T15:10:02.504Z,23.40
2022-08-17T15:12:34.632Z,23.50
2022-08-17T15:15:07.923Z,23.40
2022-08-17T15:17:45.043Z,23.30
2022-08-17T15:20:24.190Z,23.30
2022-08-17T15:22:55.416Z,23.30
2022-08-17T15:25:23.846Z,23.40
2022-08-17T15:27:51.081Z,23.80
2022-08-17T15:30:18.407Z,23.30
2022-08-17T15:32:51.317Z,23.40
2022-08-17T15:35:30.297Z,23.40
2022-08-17T15:38:03.544Z,23.50
2022-08-17T15:40:39.079Z,23.50
2022-08-17T15:43:12.777Z,23.60
2022-08-17T15:45:40.510Z,23.80
2022-08-17T15:48:08.132Z,23.60
2022-08-17T15:50:36.055Z,23.50
2022-08-17T15:53:05.116Z,23.40
2022-08-17T15:55:34.344Z,23.50
2022-08-17T15:58:02.117Z,23.70
2022-08-17T16:00:29.600Z,23.70
2022-08-17T16:03:45.086Z,23.80
2022-08-17T16:05:50.773Z,23.70
2022-08-17T16:08:21.259Z,23.60
2022-08-17T16:10:49.866Z,23.70
2022-08-17T16:13:18.378Z,23.80
2022-08-17T16:15:56.533Z,23.80
2022-08-17T16:18:32.444Z,23.80
2022-08-17T16:21:21.813Z,23.80
2022-08-17T16:23:51.850Z,24.00
2022-08-17T16:26:19.440Z,24.00
2022-08-17T16:28:47.412Z,23.90
2022-08-17T16:31:17.610Z,24.30
2022-08-17T16:34:03.801Z,24.20
2022-08-17T16:36:33.218Z,24.20
2022-08-17T16:39:01.566Z,24.20
2022-08-17T16:41:44.413Z,24.10
2022-08-17T16:44:17.581Z,24.70
2022-08-17T16:46:46.206Z,24.70
2022-08-17T16:49:35.489Z,24.70
2022-08-17T16:52:03.124Z,25.10
2022-08-17T16:54:30.402Z,25.90
2022-08-17T16:56:57.450Z,26.60
2022-08-17T16:59:30.744Z,27.00
2022-08-17T17:02:10.880Z,26.70
2022-08-17T17:04:55.027Z,26.20
2022-08-17T17:08:01.093Z,25.60
2022-08-17T17:10:42.583Z,26.10
2022-08-17T17:13:17.226Z,27.20
2022-08-17T17:15:54.923Z,27.90
2022-08-17T17:18:31.968Z,28.20
2022-08-17T17:20:59.387Z,27.00
2022-08-17T17:23:35.272Z,26.90
2022-08-17T17:26:07.649Z,26.60
2022-08-17T17:29:11.804Z,26.60
2022-08-17T17:31:54.977Z,27.40
2022-08-17T17:34:25.916Z,28.30
2022-08-17T17:36:58.128Z,28.40
2022-08-17T17:40:15.287Z,28.50
2022-08-17T17:42:44.475Z,28.40
2022-08-17T17:45:24.502Z,28.70
2022-08-17T17:47:56.328Z,29.40
2022-08-17T17:50:36.155Z,29.50
2022-08-17T17:53:09.753Z,29.70
2022-08-17T17:55:44.209Z,29.70
2022-08-17T17:58:36.414Z,29.80
2022-08-17T18:01:10.459Z,30.00
2022-08-17T18:03:43.589Z,30.00
2022-08-17T18:06:38.226Z,30.10
2022-08-17T18:09:33.829Z,30.20
2022-08-17T18:12:39.301Z,30.70
2022-08-17T18:15:22.993Z,30.60
2022-08-17T18:18:32.654Z,30.80
2022-08-17T18:21:16.792Z,30.80
2022-08-17T18:24:05.366Z,30.70
2022-08-17T18:26:37.973Z,31.00
2022-08-17T18:29:27.897Z,30.80
2022-08-17T18:32:22.033Z,31.30
2022-08-17T18:35:33.805Z,31.60
2022-08-17T18:38:22.170Z,31.60
2022-08-17T18:41:21.128Z,31.80
2022-08-17T18:44:16.265Z,31.80
2022-08-17T18:46:43.692Z,32.00
2022-08-17T18:49:19.957Z,31.70
2022-08-17T18:51:47.683Z,32.00
2022-08-17T18:54:20.755Z,32.00
2022-08-17T18:57:00.031Z,32.30
2022-08-17T18:59:48.238Z,32.50
2022-08-17T19:05:29.595Z,32.40
2022-08-17T19:08:17.561Z,32.50
2022-08-17T19:10:47.732Z,32.90
2022-08-17T19:13:29.216Z,32.80
2022-08-17T19:16:11.595Z,33.00
2022-08-17T19:19:19.349Z,33.10
2022-08-17T19:21:57.247Z,33.40
2022-08-17T19:24:27.562Z,33.40
2022-08-17T19:27:41.806Z,33.50
2022-08-17T19:30:16.584Z,33.90
2022-08-17T20:12:52.969Z,38.80
2022-08-17T20:15:29.579Z,40.00
2022-08-17T20:18:06.307Z,39.50
2022-08-17T20:21:06.438Z,39.00
2022-08-17T20:24:15.277Z,38.80
2022-08-17T20:26:59.309Z,38.50
2022-08-17T20:29:39.880Z,38.10
2022-08-17T20:32:33.981Z,37.70
2022-08-17T20:35:23.007Z,37.40
2022-08-17T20:38:11.993Z,37.10
2022-08-17T20:41:05.023Z,37.10
2022-08-17T20:43:34.423Z,37.20
2022-08-17T20:46:29.009Z,37.00
2022-08-17T20:49:17.516Z,37.30
2022-08-17T20:52:02.640Z,37.40
2022-08-17T20:54:48.656Z,37.30
2022-08-17T20:57:32.036Z,37.30
2022-08-17T21:00:17.522Z,37.30
